sensor_id;sensor_type;location;lat;lon;timestamp;P1;durP1;ratioP1;P2;durP2;ratioP2
35540;SDS011;21650;48.840;9.162;2022-08-25T00:00:16;3.63;;;2.93;;
35540;SDS011;21650;48.840;9.162;2022-08-25T00:02:46;4.67;;;3.40;;
35540;SDS011;21650;48.840;9.162;2022-08-25T00:05:11;5.83;;;3.10;;
35540;SDS011;21650;48.840;9.162;2022-08-25T00:07:37;3.00;;;2.70;;
35540;SDS011;21650;48.840;9.162;2022-08-25T00:10:04;4.13;;;2.70;;
35540;SDS011;21650;48.840;9.162;2022-08-25T00:12:30;3.03;;;2.73;;
35540;SDS011;21650;48.840;9.162;2022-08-25T00:14:56;3.47;;;2.13;;
35540;SDS011;21650;48.840;9.162;2022-08-25T00:17:21;2.97;;;2.67;;
35540;SDS011;21650;48.840;9.162;2022-08-25T00:19:47;4.27;;;2.63;;
35540;SDS011;21650;48.840;9.162;2022-08-25T00:22:13;2.73;;;2.20;;
35540;SDS011;21650;48.840;9.162;2022-08-25T00:24:39;4.03;;;2.57;;
35540;SDS011;21650;48.840;9.162;2022-08-25T00:27:04;2.63;;;2.40;;
35540;SDS011;21650;48.840;9.162;2022-08-25T00:29:30;3.23;;;2.67;;
35540;SDS011;21650;48.840;9.162;2022-08-25T00:31:57;2.50;;;2.30;;
35540;SDS011;21650;48.840;9.162;2022-08-25T00:34:30;3.27;;;2.10;;
35540;SDS011;21650;48.840;9.162;2022-08-25T00:36:58;3.23;;;2.70;;
35540;SDS011;21650;48.840;9.162;2022-08-25T00:39:25;2.87;;;2.67;;
35540;SDS011;21650;48.840;9.162;2022-08-25T00:41:52;4.67;;;2.63;;
35540;SDS011;21650;48.840;9.162;2022-08-25T00:44:23;3.27;;;2.73;;
35540;SDS011;21650;48.840;9.162;2022-08-25T00:46:51;3.17;;;2.30;;
35540;SDS011;21650;48.840;9.162;2022-08-25T00:52:00;2.80;;;2.60;;
35540;SDS011;21650;48.840;9.162;2022-08-25T00:54:30;2.97;;;2.60;;
35540;SDS011;21650;48.840;9.162;2022-08-25T00:57:21;4.73;;;2.70;;
35540;SDS011;21650;48.840;9.162;2022-08-25T00:59:51;4.67;;;3.03;;
35540;SDS011;21650;48.840;9.162;2022-08-25T01:02:16;3.30;;;2.80;;
35540;SDS011;21650;48.840;9.162;2022-08-25T01:04:42;3.27;;;2.70;;
35540;SDS011;21650;48.840;9.162;2022-08-25T01:07:09;3.13;;;2.63;;
35540;SDS011;21650;48.840;9.162;2022-08-25T01:09:35;3.73;;;2.97;;
35540;SDS011;21650;48.840;9.162;2022-08-25T01:12:02;3.57;;;2.90;;
35540;SDS011;21650;48.840;9.162;2022-08-25T01:14:28;5.07;;;2.77;;
35540;SDS011;21650;48.840;9.162;2022-08-25T01:16:55;2.70;;;2.50;;
35540;SDS011;21650;48.840;9.162;2022-08-25T01:19:23;4.50;;;3.53;;
35540;SDS011;21650;48.840;9.162;2022-08-25T01:21:51;5.00;;;2.90;;
35540;SDS011;21650;48.840;9.162;2022-08-25T01:24:37;3.77;;;3.07;;
35540;SDS011;21650;48.840;9.162;2022-08-25T01:27:10;3.63;;;2.70;;
35540;SDS011;21650;48.840;9.162;2022-08-25T01:29:37;3.73;;;3.43;;
35540;SDS011;21650;48.840;9.162;2022-08-25T01:32:05;3.10;;;2.63;;
35540;SDS011;21650;48.840;9.162;2022-08-25T01:34:34;3.17;;;2.87;;
35540;SDS011;21650;48.840;9.162;2022-08-25T01:37:06;2.60;;;2.40;;
35540;SDS011;21650;48.840;9.162;2022-08-25T01:39:33;4.20;;;3.33;;
35540;SDS011;21650;48.840;9.162;2022-08-25T01:44:36;3.97;;;3.03;;
35540;SDS011;21650;48.840;9.162;2022-08-25T01:47:04;3.97;;;2.80;;
35540;SDS011;21650;48.840;9.162;2022-08-25T01:49:31;3.90;;;3.07;;
35540;SDS011;21650;48.840;9.162;2022-08-25T01:52:00;3.60;;;3.13;;
35540;SDS011;21650;48.840;9.162;2022-08-25T01:54:29;3.53;;;3.23;;
35540;SDS011;21650;48.840;9.162;2022-08-25T01:56:55;3.33;;;3.03;;
35540;SDS011;21650;48.840;9.162;2022-08-25T01:59:22;5.73;;;3.17;;
35540;SDS011;21650;48.840;9.162;2022-08-25T02:01:48;4.50;;;3.70;;
35540;SDS011;21650;48.840;9.162;2022-08-25T02:04:13;5.37;;;3.43;;
35540;SDS011;21650;48.840;9.162;2022-08-25T02:06:39;5.40;;;3.40;;
35540;SDS011;21650;48.840;9.162;2022-08-25T02:09:07;4.97;;;3.63;;
35540;SDS011;21650;48.840;9.162;2022-08-25T02:11:35;3.23;;;2.93;;
35540;SDS011;21650;48.840;9.162;2022-08-25T02:14:05;3.80;;;3.47;;
35540;SDS011;21650;48.840;9.162;2022-08-25T02:16:32;4.53;;;3.30;;
35540;SDS011;21650;48.840;9.162;2022-08-25T02:19:00;4.70;;;4.13;;
35540;SDS011;21650;48.840;9.162;2022-08-25T02:21:26;3.97;;;3.13;;
35540;SDS011;21650;48.840;9.162;2022-08-25T02:23:52;3.90;;;3.40;;
35540;SDS011;21650;48.840;9.162;2022-08-25T02:26:18;4.53;;;3.40;;
35540;SDS011;21650;48.840;9.162;2022-08-25T02:28:45;7.03;;;3.73;;
35540;SDS011;21650;48.840;9.162;2022-08-25T02:31:11;6.37;;;3.47;;
35540;SDS011;21650;48.840;9.162;2022-08-25T02:33:38;4.53;;;3.40;;
35540;SDS011;21650;48.840;9.162;2022-08-25T02:36:03;4.23;;;3.37;;
35540;SDS011;21650;48.840;9.162;2022-08-25T02:38:29;3.63;;;3.10;;
35540;SDS011;21650;48.840;9.162;2022-08-25T02:40:56;4.47;;;3.53;;
35540;SDS011;21650;48.840;9.162;2022-08-25T02:43:23;3.97;;;3.50;;
35540;SDS011;21650;48.840;9.162;2022-08-25T02:45:50;10.40;;;4.07;;
35540;SDS011;21650;48.840;9.162;2022-08-25T02:48:17;3.90;;;3.53;;
35540;SDS011;21650;48.840;9.162;2022-08-25T02:50:47;6.63;;;3.60;;
35540;SDS011;21650;48.840;9.162;2022-08-25T02:53:15;4.70;;;3.87;;
35540;SDS011;21650;48.840;9.162;2022-08-25T02:55:41;5.40;;;3.60;;
35540;SDS011;21650;48.840;9.162;2022-08-25T02:58:07;5.40;;;3.70;;
35540;SDS011;21650;48.840;9.162;2022-08-25T03:00:33;6.27;;;4.07;;
35540;SDS011;21650;48.840;9.162;2022-08-25T03:02:59;4.93;;;3.93;;
35540;SDS011;21650;48.840;9.162;2022-08-25T03:05:24;5.63;;;3.63;;
35540;SDS011;21650;48.840;9.162;2022-08-25T03:07:50;4.27;;;3.73;;
35540;SDS011;21650;48.840;9.162;2022-08-25T03:10:16;5.53;;;3.77;;
35540;SDS011;21650;48.840;9.162;2022-08-25T03:12:42;3.70;;;3.30;;
35540;SDS011;21650;48.840;9.162;2022-08-25T03:15:09;7.47;;;3.63;;
35540;SDS011;21650;48.840;9.162;2022-08-25T03:17:37;5.07;;;4.27;;
35540;SDS011;21650;48.840;9.162;2022-08-25T03:20:04;5.70;;;3.70;;
35540;SDS011;21650;48.840;9.162;2022-08-25T03:22:30;4.63;;;3.90;;
35540;SDS011;21650;48.840;9.162;2022-08-25T03:24:56;4.73;;;3.67;;
35540;SDS011;21650;48.840;9.162;2022-08-25T03:27:41;4.77;;;4.03;;
35540;SDS011;21650;48.840;9.162;2022-08-25T03:30:07;4.40;;;3.63;;
35540;SDS011;21650;48.840;9.162;2022-08-25T03:32:33;5.50;;;3.93;;
35540;SDS011;21650;48.840;9.162;2022-08-25T03:34:59;5.27;;;4.50;;
35540;SDS011;21650;48.840;9.162;2022-08-25T03:37:26;5.23;;;3.93;;
35540;SDS011;21650;48.840;9.162;2022-08-25T03:39:51;3.97;;;3.23;;
35540;SDS011;21650;48.840;9.162;2022-08-25T03:42:17;5.87;;;4.23;;
35540;SDS011;21650;48.840;9.162;2022-08-25T03:44:43;4.87;;;3.97;;
35540;SDS011;21650;48.840;9.162;2022-08-25T03:49:37;5.47;;;4.17;;
35540;SDS011;21650;48.840;9.162;2022-08-25T03:52:02;7.83;;;4.17;;
35540;SDS011;21650;48.840;9.162;2022-08-25T03:54:28;5.67;;;3.77;;
35540;SDS011;21650;48.840;9.162;2022-08-25T03:56:53;5.53;;;3.80;;
35540;SDS011;21650;48.840;9.162;2022-08-25T03:59:19;5.27;;;3.93;;
35540;SDS011;21650;48.840;9.162;2022-08-25T04:01:46;6.47;;;3.80;;
35540;SDS011;21650;48.840;9.162;2022-08-25T04:04:12;6.03;;;3.80;;
35540;SDS011;21650;48.840;9.162;2022-08-25T04:06:40;4.90;;;4.17;;
35540;SDS011;21650;48.840;9.162;2022-08-25T04:09:07;4.67;;;4.07;;
35540;SDS011;21650;48.840;9.162;2022-08-25T04:11:34;4.30;;;3.57;;
35540;SDS011;21650;48.840;9.162;2022-08-25T04:14:00;5.20;;;3.97;;
35540;SDS011;21650;48.840;9.162;2022-08-25T04:16:28;4.40;;;3.90;;
35540;SDS011;21650;48.840;9.162;2022-08-25T04:18:56;6.07;;;4.07;;
35540;SDS011;21650;48.840;9.162;2022-08-25T04:21:23;5.73;;;3.97;;
35540;SDS011;21650;48.840;9.162;2022-08-25T04:23:50;6.00;;;3.83;;
35540;SDS011;21650;48.840;9.162;2022-08-25T04:28:55;4.63;;;4.07;;
35540;SDS011;21650;48.840;9.162;2022-08-25T04:31:21;5.30;;;4.33;;
35540;SDS011;21650;48.840;9.162;2022-08-25T04:33:47;6.50;;;4.70;;
35540;SDS011;21650;48.840;9.162;2022-08-25T04:36:14;5.70;;;4.47;;
35540;SDS011;21650;48.840;9.162;2022-08-25T04:38:42;6.17;;;4.97;;
35540;SDS011;21650;48.840;9.162;2022-08-25T04:41:09;6.90;;;4.97;;
35540;SDS011;21650;48.840;9.162;2022-08-25T04:43:38;6.37;;;4.83;;
35540;SDS011;21650;48.840;9.162;2022-08-25T04:46:05;6.07;;;4.70;;
35540;SDS011;21650;48.840;9.162;2022-08-25T04:48:33;8.77;;;4.53;;
35540;SDS011;21650;48.840;9.162;2022-08-25T04:51:03;6.67;;;4.93;;
35540;SDS011;21650;48.840;9.162;2022-08-25T04:53:30;6.20;;;4.53;;
35540;SDS011;21650;48.840;9.162;2022-08-25T04:55:57;7.37;;;4.70;;
35540;SDS011;21650;48.840;9.162;2022-08-25T04:58:22;5.93;;;4.57;;
35540;SDS011;21650;48.840;9.162;2022-08-25T05:00:48;6.27;;;4.40;;
35540;SDS011;21650;48.840;9.162;2022-08-25T05:03:16;6.90;;;5.10;;
35540;SDS011;21650;48.840;9.162;2022-08-25T05:05:45;6.60;;;4.70;;
35540;SDS011;21650;48.840;9.162;2022-08-25T05:08:11;7.60;;;4.30;;
35540;SDS011;21650;48.840;9.162;2022-08-25T05:10:40;7.30;;;4.77;;
35540;SDS011;21650;48.840;9.162;2022-08-25T05:13:05;6.33;;;4.40;;
35540;SDS011;21650;48.840;9.162;2022-08-25T05:15:31;7.27;;;5.37;;
35540;SDS011;21650;48.840;9.162;2022-08-25T05:18:15;6.00;;;5.20;;
35540;SDS011;21650;48.840;9.162;2022-08-25T05:20:42;6.63;;;4.30;;
35540;SDS011;21650;48.840;9.162;2022-08-25T05:23:08;6.87;;;4.37;;
35540;SDS011;21650;48.840;9.162;2022-08-25T05:25:34;6.83;;;4.23;;
35540;SDS011;21650;48.840;9.162;2022-08-25T05:28:00;7.47;;;5.00;;
35540;SDS011;21650;48.840;9.162;2022-08-25T05:30:25;7.13;;;4.90;;
35540;SDS011;21650;48.840;9.162;2022-08-25T05:32:51;9.87;;;5.03;;
35540;SDS011;21650;48.840;9.162;2022-08-25T05:35:17;10.77;;;5.20;;
35540;SDS011;21650;48.840;9.162;2022-08-25T05:37:44;8.83;;;5.27;;
35540;SDS011;21650;48.840;9.162;2022-08-25T05:40:10;7.10;;;4.87;;
35540;SDS011;21650;48.840;9.162;2022-08-25T05:42:36;8.33;;;5.50;;
35540;SDS011;21650;48.840;9.162;2022-08-25T05:45:03;10.47;;;5.97;;
35540;SDS011;21650;48.840;9.162;2022-08-25T05:47:29;10.70;;;5.83;;
35540;SDS011;21650;48.840;9.162;2022-08-25T05:49:55;10.10;;;5.67;;
35540;SDS011;21650;48.840;9.162;2022-08-25T05:52:21;9.53;;;5.87;;
35540;SDS011;21650;48.840;9.162;2022-08-25T05:54:46;9.10;;;5.67;;
35540;SDS011;21650;48.840;9.162;2022-08-25T05:57:12;9.57;;;5.73;;
35540;SDS011;21650;48.840;9.162;2022-08-25T05:59:38;8.50;;;5.50;;
35540;SDS011;21650;48.840;9.162;2022-08-25T06:02:04;10.40;;;6.10;;
35540;SDS011;21650;48.840;9.162;2022-08-25T06:04:48;7.33;;;5.70;;
35540;SDS011;21650;48.840;9.162;2022-08-25T06:07:13;10.67;;;5.40;;
35540;SDS011;21650;48.840;9.162;2022-08-25T06:09:40;8.43;;;5.83;;
35540;SDS011;21650;48.840;9.162;2022-08-25T06:12:06;8.27;;;6.53;;
35540;SDS011;21650;48.840;9.162;2022-08-25T06:14:32;8.90;;;6.13;;
35540;SDS011;21650;48.840;9.162;2022-08-25T06:16:59;9.43;;;6.20;;
35540;SDS011;21650;48.840;9.162;2022-08-25T06:19:25;7.87;;;6.87;;
35540;SDS011;21650;48.840;9.162;2022-08-25T06:21:54;8.63;;;6.77;;
35540;SDS011;21650;48.840;9.162;2022-08-25T06:24:21;8.30;;;6.17;;
35540;SDS011;21650;48.840;9.162;2022-08-25T06:26:47;8.90;;;6.27;;
35540;SDS011;21650;48.840;9.162;2022-08-25T06:29:13;9.43;;;7.07;;
35540;SDS011;21650;48.840;9.162;2022-08-25T06:31:38;12.67;;;7.20;;
35540;SDS011;21650;48.840;9.162;2022-08-25T06:34:04;9.47;;;6.17;;
35540;SDS011;21650;48.840;9.162;2022-08-25T06:36:30;8.10;;;6.27;;
35540;SDS011;21650;48.840;9.162;2022-08-25T06:38:57;9.23;;;6.37;;
35540;SDS011;21650;48.840;9.162;2022-08-25T06:41:23;7.97;;;6.07;;
35540;SDS011;21650;48.840;9.162;2022-08-25T06:43:49;8.97;;;5.90;;
35540;SDS011;21650;48.840;9.162;2022-08-25T06:46:20;8.77;;;5.83;;
35540;SDS011;21650;48.840;9.162;2022-08-25T06:48:47;9.53;;;6.20;;
35540;SDS011;21650;48.840;9.162;2022-08-25T06:51:15;8.67;;;5.97;;
35540;SDS011;21650;48.840;9.162;2022-08-25T06:53:43;8.67;;;5.93;;
35540;SDS011;21650;48.840;9.162;2022-08-25T06:56:10;7.97;;;5.87;;
35540;SDS011;21650;48.840;9.162;2022-08-25T06:58:36;8.70;;;5.97;;
35540;SDS011;21650;48.840;9.162;2022-08-25T07:01:13;9.47;;;6.30;;
35540;SDS011;21650;48.840;9.162;2022-08-25T07:03:39;7.20;;;5.60;;
35540;SDS011;21650;48.840;9.162;2022-08-25T07:06:05;7.20;;;5.80;;
35540;SDS011;21650;48.840;9.162;2022-08-25T07:08:31;9.07;;;5.90;;
35540;SDS011;21650;48.840;9.162;2022-08-25T07:10:57;7.47;;;6.07;;
35540;SDS011;21650;48.840;9.162;2022-08-25T07:13:28;5.80;;;5.17;;
35540;SDS011;21650;48.840;9.162;2022-08-25T07:15:55;7.20;;;5.87;;
35540;SDS011;21650;48.840;9.162;2022-08-25T07:18:21;7.33;;;5.37;;
35540;SDS011;21650;48.840;9.162;2022-08-25T07:20:47;8.87;;;5.83;;
35540;SDS011;21650;48.840;9.162;2022-08-25T07:23:13;6.77;;;5.57;;
35540;SDS011;21650;48.840;9.162;2022-08-25T07:25:39;8.30;;;6.40;;
35540;SDS011;21650;48.840;9.162;2022-08-25T07:28:05;11.23;;;5.80;;
35540;SDS011;21650;48.840;9.162;2022-08-25T07:30:31;6.60;;;5.70;;
35540;SDS011;21650;48.840;9.162;2022-08-25T07:32:56;6.47;;;5.60;;
35540;SDS011;21650;48.840;9.162;2022-08-25T07:35:22;6.30;;;5.53;;
35540;SDS011;21650;48.840;9.162;2022-08-25T07:37:53;6.87;;;5.80;;
35540;SDS011;21650;48.840;9.162;2022-08-25T07:40:23;7.00;;;5.30;;
35540;SDS011;21650;48.840;9.162;2022-08-25T07:42:52;7.17;;;5.70;;
35540;SDS011;21650;48.840;9.162;2022-08-25T07:45:20;9.33;;;5.87;;
35540;SDS011;21650;48.840;9.162;2022-08-25T07:47:54;6.83;;;6.00;;
35540;SDS011;21650;48.840;9.162;2022-08-25T07:50:24;7.17;;;5.47;;
35540;SDS011;21650;48.840;9.162;2022-08-25T07:52:51;7.57;;;6.13;;
35540;SDS011;21650;48.840;9.162;2022-08-25T07:55:17;8.43;;;5.43;;
35540;SDS011;21650;48.840;9.162;2022-08-25T07:57:44;8.87;;;6.07;;
35540;SDS011;21650;48.840;9.162;2022-08-25T08:00:11;6.60;;;5.83;;
35540;SDS011;21650;48.840;9.162;2022-08-25T08:02:39;8.60;;;5.73;;
35540;SDS011;21650;48.840;9.162;2022-08-25T08:05:05;7.33;;;5.77;;
35540;SDS011;21650;48.840;9.162;2022-08-25T08:07:32;8.13;;;5.97;;
35540;SDS011;21650;48.840;9.162;2022-08-25T08:09:57;7.13;;;5.33;;
35540;SDS011;21650;48.840;9.162;2022-08-25T08:12:23;6.37;;;5.63;;
35540;SDS011;21650;48.840;9.162;2022-08-25T08:14:50;8.87;;;5.47;;
35540;SDS011;21650;48.840;9.162;2022-08-25T08:17:16;7.10;;;5.67;;
35540;SDS011;21650;48.840;9.162;2022-08-25T08:19:42;6.33;;;5.60;;
35540;SDS011;21650;48.840;9.162;2022-08-25T08:22:08;8.03;;;5.80;;
35540;SDS011;21650;48.840;9.162;2022-08-25T08:24:35;8.40;;;5.73;;
35540;SDS011;21650;48.840;9.162;2022-08-25T08:27:06;9.27;;;5.83;;
35540;SDS011;21650;48.840;9.162;2022-08-25T08:29:36;8.87;;;5.97;;
35540;SDS011;21650;48.840;9.162;2022-08-25T08:32:03;7.77;;;5.73;;
35540;SDS011;21650;48.840;9.162;2022-08-25T08:34:31;6.63;;;5.37;;
35540;SDS011;21650;48.840;9.162;2022-08-25T08:36:57;8.57;;;5.70;;
35540;SDS011;21650;48.840;9.162;2022-08-25T08:39:24;8.47;;;5.47;;
35540;SDS011;21650;48.840;9.162;2022-08-25T08:47:15;5.57;;;4.93;;
35540;SDS011;21650;48.840;9.162;2022-08-25T08:52:56;6.87;;;4.67;;
35540;SDS011;21650;48.840;9.162;2022-08-25T08:55:44;8.17;;;5.10;;
35540;SDS011;21650;48.840;9.162;2022-08-25T08:58:21;6.87;;;5.13;;
35540;SDS011;21650;48.840;9.162;2022-08-25T09:00:51;6.57;;;5.47;;
35540;SDS011;21650;48.840;9.162;2022-08-25T09:06:11;6.63;;;5.13;;
35540;SDS011;21650;48.840;9.162;2022-08-25T09:08:42;6.15;;;4.90;;
35540;SDS011;21650;48.840;9.162;2022-08-25T09:11:19;5.53;;;4.68;;
35540;SDS011;21650;48.840;9.162;2022-08-25T09:14:03;5.95;;;4.80;;
35540;SDS011;21650;48.840;9.162;2022-08-25T09:16:52;5.78;;;4.63;;
35540;SDS011;21650;48.840;9.162;2022-08-25T09:25:27;6.45;;;4.35;;
35540;SDS011;21650;48.840;9.162;2022-08-25T09:33:25;6.47;;;4.68;;
35540;SDS011;21650;48.840;9.162;2022-08-25T09:35:53;4.13;;;3.72;;
35540;SDS011;21650;48.840;9.162;2022-08-25T09:38:20;4.80;;;4.30;;
35540;SDS011;21650;48.840;9.162;2022-08-25T09:40:47;5.15;;;4.57;;
35540;SDS011;21650;48.840;9.162;2022-08-25T09:43:29;6.15;;;4.28;;
35540;SDS011;21650;48.840;9.162;2022-08-25T09:46:01;4.75;;;4.22;;
35540;SDS011;21650;48.840;9.162;2022-08-25T09:48:56;4.60;;;3.70;;
35540;SDS011;21650;48.840;9.162;2022-08-25T09:51:35;4.38;;;3.30;;
35540;SDS011;21650;48.840;9.162;2022-08-25T09:57:25;4.57;;;4.07;;
35540;SDS011;21650;48.840;9.162;2022-08-25T09:59:51;4.70;;;4.10;;
35540;SDS011;21650;48.840;9.162;2022-08-25T10:04:45;5.05;;;4.45;;
35540;SDS011;21650;48.840;9.162;2022-08-25T10:07:19;4.05;;;3.65;;
35540;SDS011;21650;48.840;9.162;2022-08-25T10:09:54;4.97;;;4.20;;
35540;SDS011;21650;48.840;9.162;2022-08-25T10:12:28;5.72;;;4.18;;
35540;SDS011;21650;48.840;9.162;2022-08-25T10:14:54;4.80;;;3.75;;
35540;SDS011;21650;48.840;9.162;2022-08-25T10:17:28;5.63;;;3.97;;
35540;SDS011;21650;48.840;9.162;2022-08-25T10:20:11;4.80;;;4.30;;
35540;SDS011;21650;48.840;9.162;2022-08-25T10:22:42;6.85;;;3.92;;
35540;SDS011;21650;48.840;9.162;2022-08-25T10:25:09;4.05;;;3.65;;
35540;SDS011;21650;48.840;9.162;2022-08-25T10:27:39;4.45;;;3.63;;
35540;SDS011;21650;48.840;9.162;2022-08-25T10:30:22;4.47;;;4.05;;
35540;SDS011;21650;48.840;9.162;2022-08-25T10:38:37;4.03;;;3.63;;
35540;SDS011;21650;48.840;9.162;2022-08-25T10:44:14;5.28;;;4.10;;
35540;SDS011;21650;48.840;9.162;2022-08-25T10:47:26;5.30;;;4.07;;
35540;SDS011;21650;48.840;9.162;2022-08-25T10:49:47;5.03;;;4.53;;
35540;SDS011;21650;48.840;9.162;2022-08-25T10:52:37;4.57;;;4.18;;
35540;SDS011;21650;48.840;9.162;2022-08-25T10:55:30;4.80;;;4.30;;
35540;SDS011;21650;48.840;9.162;2022-08-25T10:58:18;6.63;;;4.50;;
35540;SDS011;21650;48.840;9.162;2022-08-25T11:01:05;10.75;;;4.35;;
35540;SDS011;21650;48.840;9.162;2022-08-25T11:03:59;4.88;;;4.35;;
35540;SDS011;21650;48.840;9.162;2022-08-25T11:08:59;5.63;;;4.60;;
35540;SDS011;21650;48.840;9.162;2022-08-25T11:16:34;4.93;;;4.43;;
35540;SDS011;21650;48.840;9.162;2022-08-25T11:24:35;5.57;;;3.88;;
35540;SDS011;21650;48.840;9.162;2022-08-25T11:27:03;4.75;;;4.25;;
35540;SDS011;21650;48.840;9.162;2022-08-25T11:29:34;4.55;;;4.13;;
35540;SDS011;21650;48.840;9.162;2022-08-25T11:32:02;4.70;;;3.90;;
35540;SDS011;21650;48.840;9.162;2022-08-25T11:34:32;6.32;;;4.10;;
35540;SDS011;21650;48.840;9.162;2022-08-25T11:37:02;6.35;;;4.57;;
35540;SDS011;21650;48.840;9.162;2022-08-25T11:39:53;4.20;;;3.80;;
35540;SDS011;21650;48.840;9.162;2022-08-25T11:45:11;4.20;;;3.40;;
35540;SDS011;21650;48.840;9.162;2022-08-25T11:51:27;4.25;;;3.72;;
35540;SDS011;21650;48.840;9.162;2022-08-25T11:54:03;4.05;;;3.65;;
35540;SDS011;21650;48.840;9.162;2022-08-25T11:56:52;5.72;;;3.70;;
35540;SDS011;21650;48.840;9.162;2022-08-25T12:21:49;5.20;;;3.72;;
35540;SDS011;21650;48.840;9.162;2022-08-25T12:24:17;3.78;;;3.00;;
35540;SDS011;21650;48.840;9.162;2022-08-25T12:27:05;5.45;;;3.47;;
35540;SDS011;21650;48.840;9.162;2022-08-25T12:40:28;4.07;;;3.67;;
35540;SDS011;21650;48.840;9.162;2022-08-25T12:45:40;4.03;;;3.28;;
35540;SDS011;21650;48.840;9.162;2022-08-25T12:50:58;3.60;;;3.30;;
35540;SDS011;21650;48.840;9.162;2022-08-25T12:56:09;4.65;;;3.15;;
35540;SDS011;21650;48.840;9.162;2022-08-25T13:15:46;3.83;;;2.92;;
35540;SDS011;21650;48.840;9.162;2022-08-25T13:18:24;3.55;;;2.95;;
35540;SDS011;21650;48.840;9.162;2022-08-25T13:20:53;3.30;;;3.00;;
35540;SDS011;21650;48.840;9.162;2022-08-25T13:23:27;5.85;;;3.05;;
35540;SDS011;21650;48.840;9.162;2022-08-25T13:25:54;2.75;;;2.53;;
35540;SDS011;21650;48.840;9.162;2022-08-25T13:28:26;3.22;;;2.83;;
35540;SDS011;21650;48.840;9.162;2022-08-25T13:31:04;3.03;;;2.70;;
35540;SDS011;21650;48.840;9.162;2022-08-25T13:33:30;3.63;;;2.70;;
35540;SDS011;21650;48.840;9.162;2022-08-25T13:35:57;4.05;;;2.75;;
35540;SDS011;21650;48.840;9.162;2022-08-25T13:38:43;3.40;;;2.65;;
35540;SDS011;21650;48.840;9.162;2022-08-25T13:41:15;2.55;;;2.20;;
35540;SDS011;21650;48.840;9.162;2022-08-25T13:43:42;3.15;;;2.33;;
35540;SDS011;21650;48.840;9.162;2022-08-25T13:46:08;3.13;;;2.60;;
35540;SDS011;21650;48.840;9.162;2022-08-25T13:48:34;2.42;;;2.22;;
35540;SDS011;21650;48.840;9.162;2022-08-25T13:51:15;3.60;;;2.65;;
35540;SDS011;21650;48.840;9.162;2022-08-25T13:53:51;3.58;;;2.75;;
35540;SDS011;21650;48.840;9.162;2022-08-25T13:56:23;2.47;;;2.28;;
35540;SDS011;21650;48.840;9.162;2022-08-25T13:59:04;4.13;;;2.50;;
35540;SDS011;21650;48.840;9.162;2022-08-25T14:01:43;4.28;;;2.78;;
35540;SDS011;21650;48.840;9.162;2022-08-25T14:04:25;4.07;;;2.75;;
35540;SDS011;21650;48.840;9.162;2022-08-25T14:12:32;3.22;;;2.92;;
35540;SDS011;21650;48.840;9.162;2022-08-25T14:17:35;2.75;;;2.42;;
35540;SDS011;21650;48.840;9.162;2022-08-25T14:20:04;3.35;;;3.00;;
35540;SDS011;21650;48.840;9.162;2022-08-25T14:22:39;3.08;;;2.05;;
35540;SDS011;21650;48.840;9.162;2022-08-25T14:25:05;3.05;;;2.25;;
35540;SDS011;21650;48.840;9.162;2022-08-25T14:27:30;4.40;;;2.33;;
35540;SDS011;21650;48.840;9.162;2022-08-25T14:29:56;4.60;;;2.53;;
35540;SDS011;21650;48.840;9.162;2022-08-25T14:32:21;2.80;;;2.47;;
35540;SDS011;21650;48.840;9.162;2022-08-25T14:34:47;5.85;;;3.13;;
35540;SDS011;21650;48.840;9.162;2022-08-25T14:37:14;3.70;;;2.85;;
35540;SDS011;21650;48.840;9.162;2022-08-25T14:39:42;4.15;;;2.80;;
35540;SDS011;21650;48.840;9.162;2022-08-25T14:42:08;2.67;;;2.28;;
35540;SDS011;21650;48.840;9.162;2022-08-25T14:44:34;3.38;;;2.63;;
35540;SDS011;21650;48.840;9.162;2022-08-25T14:47:00;4.13;;;2.72;;
35540;SDS011;21650;48.840;9.162;2022-08-25T14:49:30;3.35;;;2.53;;
35540;SDS011;21650;48.840;9.162;2022-08-25T14:52:00;3.03;;;2.70;;
35540;SDS011;21650;48.840;9.162;2022-08-25T14:54:32;2.75;;;2.55;;
35540;SDS011;21650;48.840;9.162;2022-08-25T14:56:58;3.05;;;2.70;;
35540;SDS011;21650;48.840;9.162;2022-08-25T14:59:23;3.03;;;2.72;;
35540;SDS011;21650;48.840;9.162;2022-08-25T15:01:49;2.80;;;2.55;;
35540;SDS011;21650;48.840;9.162;2022-08-25T15:04:16;3.10;;;2.67;;
35540;SDS011;21650;48.840;9.162;2022-08-25T16:19:23;3.05;;;2.75;;
35540;SDS011;21650;48.840;9.162;2022-08-25T16:21:52;3.60;;;2.60;;
35540;SDS011;21650;48.840;9.162;2022-08-25T16:24:18;2.30;;;2.10;;
35540;SDS011;21650;48.840;9.162;2022-08-25T16:26:44;2.88;;;2.65;;
35540;SDS011;21650;48.840;9.162;2022-08-25T16:29:11;2.70;;;2.50;;
35540;SDS011;21650;48.840;9.162;2022-08-25T16:31:38;3.03;;;2.80;;
35540;SDS011;21650;48.840;9.162;2022-08-25T16:34:04;2.88;;;2.67;;
35540;SDS011;21650;48.840;9.162;2022-08-25T16:36:30;3.40;;;2.72;;
35540;SDS011;21650;48.840;9.162;2022-08-25T16:38:55;2.95;;;2.65;;
35540;SDS011;21650;48.840;9.162;2022-08-25T16:41:25;4.07;;;2.50;;
35540;SDS011;21650;48.840;9.162;2022-08-25T16:44:01;5.10;;;2.55;;
35540;SDS011;21650;48.840;9.162;2022-08-25T16:46:27;3.85;;;2.30;;
35540;SDS011;21650;48.840;9.162;2022-08-25T16:48:53;3.22;;;2.53;;
35540;SDS011;21650;48.840;9.162;2022-08-25T16:51:20;3.75;;;2.60;;
35540;SDS011;21650;48.840;9.162;2022-08-25T16:53:46;3.90;;;2.45;;
35540;SDS011;21650;48.840;9.162;2022-08-25T16:56:32;3.63;;;2.33;;
35540;SDS011;21650;48.840;9.162;2022-08-25T16:58:59;2.58;;;2.38;;
35540;SDS011;21650;48.840;9.162;2022-08-25T17:01:27;3.40;;;2.05;;
35540;SDS011;21650;48.840;9.162;2022-08-25T17:03:55;2.97;;;2.58;;
35540;SDS011;21650;48.840;9.162;2022-08-25T17:06:22;2.97;;;2.67;;
35540;SDS011;21650;48.840;9.162;2022-08-25T17:08:50;2.72;;;2.47;;
35540;SDS011;21650;48.840;9.162;2022-08-25T17:11:20;4.15;;;2.67;;
35540;SDS011;21650;48.840;9.162;2022-08-25T17:13:49;3.65;;;2.78;;
35540;SDS011;21650;48.840;9.162;2022-08-25T17:16:16;2.80;;;2.22;;
35540;SDS011;21650;48.840;9.162;2022-08-25T17:18:44;3.75;;;2.60;;
35540;SDS011;21650;48.840;9.162;2022-08-25T17:21:12;3.97;;;3.20;;
35540;SDS011;21650;48.840;9.162;2022-08-25T17:23:39;3.25;;;2.95;;
35540;SDS011;21650;48.840;9.162;2022-08-25T17:26:07;2.80;;;2.60;;
35540;SDS011;21650;48.840;9.162;2022-08-25T17:28:38;2.20;;;2.00;;
35540;SDS011;21650;48.840;9.162;2022-08-25T17:31:04;2.60;;;2.38;;
35540;SDS011;21650;48.840;9.162;2022-08-25T17:33:31;2.90;;;2.60;;
35540;SDS011;21650;48.840;9.162;2022-08-25T17:35:56;2.70;;;2.50;;
35540;SDS011;21650;48.840;9.162;2022-08-25T17:38:23;3.40;;;2.65;;
35540;SDS011;21650;48.840;9.162;2022-08-25T17:40:50;3.20;;;2.90;;
35540;SDS011;21650;48.840;9.162;2022-08-25T17:43:17;3.17;;;2.70;;
35540;SDS011;21650;48.840;9.162;2022-08-25T17:45:44;3.13;;;2.83;;
35540;SDS011;21650;48.840;9.162;2022-08-25T17:48:09;4.03;;;2.67;;
35540;SDS011;21650;48.840;9.162;2022-08-25T17:50:37;3.42;;;3.13;;
35540;SDS011;21650;48.840;9.162;2022-08-25T17:53:03;4.00;;;2.80;;
35540;SDS011;21650;48.840;9.162;2022-08-25T17:55:29;3.00;;;2.80;;
35540;SDS011;21650;48.840;9.162;2022-08-25T17:57:54;4.20;;;2.85;;
35540;SDS011;21650;48.840;9.162;2022-08-25T18:00:20;3.50;;;3.13;;
35540;SDS011;21650;48.840;9.162;2022-08-25T18:02:47;3.20;;;2.90;;
35540;SDS011;21650;48.840;9.162;2022-08-25T18:05:13;4.45;;;3.20;;
35540;SDS011;21650;48.840;9.162;2022-08-25T18:07:39;4.47;;;3.30;;
35540;SDS011;21650;48.840;9.162;2022-08-25T18:10:06;3.70;;;2.97;;
35540;SDS011;21650;48.840;9.162;2022-08-25T18:12:33;4.68;;;3.13;;
35540;SDS011;21650;48.840;9.162;2022-08-25T18:14:59;4.68;;;2.92;;
35540;SDS011;21650;48.840;9.162;2022-08-25T18:17:25;4.97;;;2.90;;
35540;SDS011;21650;48.840;9.162;2022-08-25T18:19:51;4.72;;;2.83;;
35540;SDS011;21650;48.840;9.162;2022-08-25T18:22:17;4.93;;;2.83;;
35540;SDS011;21650;48.840;9.162;2022-08-25T18:24:44;3.53;;;2.83;;